Alda, Nebraska
Current Conditions -  °F | °C
As of 12:53 PM on Thursday 18 Dec 2014 (Local Time) from KGRI Reporting Station
Overcast Overcast  
Wind Chill: 21°   Ceiling: 1200
Heat Index: 28°   Visibility: 8mi
Dew Point: 23°   Wind: 7mph
Humidity: 81%   Direction: 230°SW
Pressure: 30.16"   Gusts: NA
Location:  40.87°N, 98.47°W
Report Text: KGRI 181853Z 23006KT 8SM OVC012 M02/M05 A3016 RMK AO2 SLP242 T10221050
Loading
Personal Weather Stations






























Interactive Weather Map New forecast layout! Learn more

10-Day Weather Forecast

Advertisements
Track Severe Weather on mobile